createdAt,value
2017-11-29T00:01:55.817Z,99835.95
2017-11-29T00:04:23.737Z,99838.45
2017-11-29T00:06:52.121Z,99839.91
2017-11-29T00:09:20.039Z,99843.66
2017-11-29T00:11:47.969Z,99838.48
2017-11-29T00:14:15.890Z,99835.89
2017-11-29T00:16:43.786Z,99842.79
2017-11-29T00:19:12.104Z,99836.67
2017-11-29T00:21:40.017Z,99831.05
2017-11-29T00:24:08.325Z,99838.42
2017-11-29T00:26:36.278Z,99831.59
2017-11-29T00:29:04.194Z,99833.97
2017-11-29T00:31:32.087Z,99830.88
2017-11-29T00:34:00.057Z,99843.63
2017-11-29T00:36:27.976Z,99835.86
2017-11-29T00:38:55.905Z,99838.92
2017-11-29T00:41:24.221Z,99834.61
2017-11-29T00:43:52.118Z,99838.05
2017-11-29T00:46:20.042Z,99848.33
2017-11-29T00:48:47.954Z,99845.41
2017-11-29T00:51:15.943Z,99849.83
2017-11-29T00:53:43.839Z,99849.64
2017-11-29T00:56:11.774Z,99855.37
2017-11-29T00:58:39.691Z,99853.22
2017-11-29T01:01:07.597Z,99851.77
2017-11-29T01:03:35.523Z,99849.58
2017-11-29T01:06:03.498Z,99847.95
2017-11-29T01:08:31.404Z,99848.02
2017-11-29T01:10:59.366Z,99849.98
2017-11-29T01:13:27.268Z,99851.44
2017-11-29T01:15:55.681Z,99850.78
2017-11-29T01:18:23.613Z,99856.20
2017-11-29T01:20:51.926Z,99860.17
2017-11-29T01:23:19.845Z,99859.39
2017-11-29T01:25:47.786Z,99856.63
2017-11-29T01:28:15.703Z,99860.16
2017-11-29T01:30:43.600Z,99853.16
2017-11-29T01:33:11.607Z,99852.00
2017-11-29T01:35:39.530Z,99847.41
2017-11-29T01:38:07.441Z,99853.00
2017-11-29T01:40:35.404Z,99848.83
2017-11-29T01:43:03.317Z,99852.34
2017-11-29T01:45:31.621Z,99849.16
2017-11-29T01:47:59.533Z,99847.01
2017-11-29T01:50:27.434Z,99845.75
2017-11-29T01:52:55.738Z,99845.64
2017-11-29T01:55:23.741Z,99842.64
2017-11-29T01:57:51.710Z,99848.63
2017-11-29T02:00:19.618Z,99847.77
2017-11-29T02:02:47.548Z,99854.00
2017-11-29T02:05:15.458Z,99861.07
2017-11-29T02:07:43.399Z,99858.98
2017-11-29T02:10:11.321Z,99857.86
2017-11-29T02:12:39.339Z,99859.07
2017-11-29T02:15:07.283Z,99858.95
2017-11-29T02:17:35.215Z,99853.47
2017-11-29T02:20:03.127Z,99861.16
2017-11-29T02:22:31.030Z,99850.37
2017-11-29T02:24:59.345Z,99850.39
2017-11-29T02:27:27.318Z,99851.86
2017-11-29T02:29:55.209Z,99848.93
2017-11-29T02:32:23.134Z,99855.52
2017-11-29T02:34:51.048Z,99837.96
2017-11-29T02:37:18.953Z,99847.81
2017-11-29T02:39:58.757Z,99847.34
2017-11-29T02:42:37.525Z,99840.16
2017-11-29T02:45:05.460Z,99848.95
2017-11-29T02:47:33.392Z,99848.95
2017-11-29T02:50:01.416Z,99857.61
2017-11-29T02:52:29.734Z,99854.41
2017-11-29T02:54:57.636Z,99849.99
2017-11-29T02:57:25.660Z,99853.39
2017-11-29T02:59:53.581Z,99853.10
2017-11-29T03:02:21.889Z,99853.72
2017-11-29T03:04:49.807Z,99856.48
2017-11-29T03:07:17.737Z,99849.02
2017-11-29T03:09:45.667Z,99861.97
2017-11-29T03:12:13.597Z,99863.15
2017-11-29T03:14:41.588Z,99866.03
2017-11-29T03:17:09.489Z,99856.75
2017-11-29T03:19:37.791Z,99853.81
2017-11-29T03:22:05.728Z,99859.45
2017-11-29T03:24:34.038Z,99861.16
2017-11-29T03:27:01.976Z,99855.28
2017-11-29T03:29:30.322Z,99858.05
2017-11-29T03:31:58.222Z,99856.53
2017-11-29T03:34:26.515Z,99860.23
2017-11-29T03:36:54.447Z,99851.59
2017-11-29T03:39:22.357Z,99851.07
2017-11-29T03:41:50.271Z,99855.70
2017-11-29T03:44:18.198Z,99842.48
2017-11-29T03:46:46.134Z,99846.30
2017-11-29T03:49:14.440Z,99845.56
2017-11-29T03:51:42.354Z,99859.52
2017-11-29T03:54:10.354Z,99852.82
2017-11-29T03:56:38.656Z,99855.53
2017-11-29T03:59:06.594Z,99860.86
2017-11-29T04:01:34.892Z,99860.14
2017-11-29T04:04:02.793Z,99858.94
2017-11-29T04:06:30.741Z,99856.97
2017-11-29T04:08:58.646Z,99865.02
2017-11-29T04:11:26.670Z,99858.51
2017-11-29T04:13:54.612Z,99863.19
2017-11-29T04:16:22.577Z,99864.19
2017-11-29T04:18:50.952Z,99864.66
2017-11-29T04:21:18.882Z,99857.56
2017-11-29T04:23:46.789Z,99860.05
2017-11-29T04:26:14.710Z,99861.55
2017-11-29T04:28:42.649Z,99862.67
2017-11-29T04:31:10.561Z,99856.44
2017-11-29T04:33:38.476Z,99862.46
2017-11-29T04:36:06.803Z,99858.25
2017-11-29T04:38:34.752Z,99865.65
2017-11-29T04:41:02.652Z,99857.29
2017-11-29T04:43:30.614Z,99860.86
2017-11-29T04:45:58.531Z,99860.92
2017-11-29T04:48:26.849Z,99862.52
2017-11-29T04:50:54.772Z,99858.97
2017-11-29T04:53:23.076Z,99860.19
2017-11-29T04:55:51.162Z,99855.97
2017-11-29T04:58:19.170Z,99860.20
2017-11-29T05:00:47.073Z,99855.13
2017-11-29T05:03:14.969Z,99853.28
2017-11-29T05:05:42.886Z,99851.97
2017-11-29T05:08:11.182Z,99850.45
2017-11-29T05:10:39.115Z,99852.09
2017-11-29T05:13:07.059Z,99856.36
2017-11-29T05:15:34.970Z,99855.02
2017-11-29T05:18:03.271Z,99853.90
2017-11-29T05:20:31.204Z,99857.98
2017-11-29T05:22:59.145Z,99858.78
2017-11-29T05:25:27.060Z,99861.31
2017-11-29T05:27:55.387Z,99860.88
2017-11-29T05:30:23.296Z,99861.23
2017-11-29T05:32:51.588Z,99860.73
2017-11-29T05:35:19.515Z,99866.90
2017-11-29T05:37:47.452Z,99861.39
2017-11-29T05:40:15.474Z,99865.38
2017-11-29T05:42:43.855Z,99867.46
2017-11-29T05:45:12.149Z,99867.54
2017-11-29T05:47:40.075Z,99873.67
2017-11-29T05:50:08.055Z,99875.41
2017-11-29T05:52:35.964Z,99870.84
2017-11-29T05:55:03.920Z,99860.69
2017-11-29T05:57:32.242Z,99864.78
2017-11-29T06:00:00.184Z,99861.05
2017-11-29T06:02:28.094Z,99858.98
2017-11-29T06:04:56.019Z,99865.69
2017-11-29T06:07:23.909Z,99866.41
2017-11-29T06:09:51.916Z,99867.06
2017-11-29T06:12:19.847Z,99866.55
2017-11-29T06:14:47.787Z,99874.48
2017-11-29T06:17:15.703Z,99871.34
2017-11-29T06:19:43.754Z,99871.78
2017-11-29T06:22:11.667Z,99875.89
2017-11-29T06:24:39.969Z,99880.86
2017-11-29T06:27:07.947Z,99878.77
2017-11-29T06:29:35.893Z,99881.09
2017-11-29T06:32:04.213Z,99882.84
2017-11-29T06:34:32.151Z,99884.64
2017-11-29T06:37:00.069Z,99879.40
2017-11-29T06:39:27.986Z,99888.34
2017-11-29T06:41:55.936Z,99881.29
2017-11-29T06:44:24.265Z,99895.95
2017-11-29T06:46:52.305Z,99889.87
2017-11-29T06:49:20.237Z,99897.26
2017-11-29T06:51:48.232Z,99896.90
2017-11-29T06:54:16.533Z,99892.06
2017-11-29T06:56:44.455Z,99895.42
2017-11-29T06:59:12.563Z,99903.36
2017-11-29T07:01:40.533Z,99902.20
2017-11-29T07:04:08.557Z,99905.27
2017-11-29T07:06:36.547Z,99909.25
2017-11-29T07:09:04.855Z,99911.30
2017-11-29T07:11:32.877Z,99913.81
2017-11-29T07:14:00.788Z,99909.13
2017-11-29T07:16:28.698Z,99912.95
2017-11-29T07:18:56.624Z,99912.27
2017-11-29T07:21:24.599Z,99915.69
2017-11-29T07:23:52.491Z,99918.17
2017-11-29T07:26:20.429Z,99931.63
2017-11-29T07:28:48.359Z,99929.95
2017-11-29T07:31:16.371Z,99936.73
2017-11-29T07:33:44.341Z,99932.81
2017-11-29T07:36:12.245Z,99938.46
2017-11-29T07:38:40.164Z,99939.84
2017-11-29T07:41:08.146Z,99946.94
2017-11-29T07:43:36.074Z,99935.71
2017-11-29T07:46:04.047Z,99935.95
2017-11-29T07:48:32.414Z,99930.37
2017-11-29T07:51:00.327Z,99930.48
2017-11-29T07:53:28.287Z,99930.38
2017-11-29T07:55:56.227Z,99937.84
2017-11-29T07:58:24.152Z,99929.77
2017-11-29T08:00:52.062Z,99939.32
2017-11-29T08:03:19.983Z,99944.71
2017-11-29T08:05:47.899Z,99945.65
2017-11-29T08:08:15.797Z,99939.45
2017-11-29T08:10:43.831Z,99942.58
2017-11-29T08:13:11.732Z,99946.28
2017-11-29T08:15:39.663Z,99952.83
2017-11-29T08:18:07.593Z,99959.14
2017-11-29T08:20:36.503Z,99959.20
2017-11-29T08:23:04.439Z,99957.69
2017-11-29T08:25:32.362Z,99954.05
2017-11-29T08:28:00.282Z,99959.30
2017-11-29T08:30:28.189Z,99956.00
2017-11-29T08:32:57.018Z,99957.80
2017-11-29T08:35:24.937Z,99962.97
2017-11-29T08:37:52.872Z,99953.31
2017-11-29T08:40:20.807Z,99963.19
2017-11-29T08:42:49.627Z,99952.66
2017-11-29T08:45:17.541Z,99952.95
2017-11-29T08:47:45.460Z,99948.58
2017-11-29T08:50:13.369Z,99952.82
2017-11-29T08:52:41.301Z,99955.44
2017-11-29T08:55:09.318Z,99963.27
2017-11-29T08:57:37.284Z,99963.89
2017-11-29T09:00:05.195Z,99967.32
2017-11-29T09:02:33.133Z,99972.91
2017-11-29T09:05:01.453Z,99974.19
2017-11-29T09:07:29.373Z,99966.47
2017-11-29T09:09:57.300Z,99971.42
2017-11-29T09:12:25.237Z,99969.20
2017-11-29T09:14:53.555Z,99965.97
2017-11-29T09:17:21.583Z,99966.97
2017-11-29T09:19:49.893Z,99952.87
2017-11-29T09:22:17.800Z,99948.60
2017-11-29T09:24:45.805Z,99953.92
2017-11-29T09:27:13.722Z,99952.83
2017-11-29T09:29:41.640Z,99951.39
2017-11-29T09:32:09.634Z,99949.85
2017-11-29T09:34:37.649Z,99948.27
2017-11-29T09:37:05.605Z,99950.56
2017-11-29T09:39:33.545Z,99947.72
2017-11-29T09:42:01.475Z,99946.88
2017-11-29T09:44:29.781Z,99944.99
2017-11-29T09:46:57.717Z,99946.33
2017-11-29T09:49:25.662Z,99941.48
2017-11-29T09:51:53.587Z,99934.53
2017-11-29T09:54:21.621Z,99937.11
2017-11-29T09:56:49.921Z,99936.20
2017-11-29T09:59:18.362Z,99940.35
2017-11-29T10:01:46.322Z,99940.61
2017-11-29T10:04:14.245Z,99938.39
2017-11-29T10:06:42.156Z,99937.41
2017-11-29T10:09:10.096Z,99934.80
2017-11-29T10:11:38.093Z,99933.22
2017-11-29T10:14:06.005Z,99934.31
2017-11-29T10:16:34.062Z,99931.03
2017-11-29T10:19:02.369Z,99927.56
2017-11-29T10:21:30.404Z,99928.36
2017-11-29T10:23:58.725Z,99923.32
2017-11-29T10:26:26.645Z,99927.70
2017-11-29T10:28:54.956Z,99927.81
2017-11-29T10:31:22.986Z,99923.77
2017-11-29T10:33:51.313Z,99925.17
2017-11-29T10:36:19.238Z,99930.91
2017-11-29T10:38:47.176Z,99936.09
2017-11-29T10:41:15.116Z,99928.44
2017-11-29T10:43:43.032Z,99933.39
2017-11-29T10:48:45.237Z,99929.33
2017-11-29T10:51:13.299Z,99927.98
2017-11-29T10:53:41.664Z,99934.41
2017-11-29T10:56:09.644Z,99933.52
2017-11-29T10:58:37.596Z,99931.00
2017-11-29T11:01:05.619Z,99928.47
2017-11-29T11:03:33.553Z,99925.43
2017-11-29T11:06:01.477Z,99924.09
2017-11-29T11:08:29.480Z,99924.93
2017-11-29T11:10:57.385Z,99929.20
2017-11-29T11:13:25.311Z,99918.70
2017-11-29T11:15:53.217Z,99924.64
2017-11-29T11:18:21.131Z,99932.78
2017-11-29T11:20:49.064Z,99930.00
2017-11-29T11:23:16.970Z,99931.07
2017-11-29T11:25:44.877Z,99936.03
2017-11-29T11:28:12.786Z,99928.94
2017-11-29T11:30:40.684Z,99932.73
2017-11-29T11:33:08.589Z,99927.73
2017-11-29T11:35:36.898Z,99928.98
2017-11-29T11:38:04.793Z,99921.94
2017-11-29T11:40:32.692Z,99919.77
2017-11-29T11:43:01.016Z,99925.47
2017-11-29T11:45:28.917Z,99918.68
2017-11-29T11:47:56.813Z,99919.89
2017-11-29T11:50:25.125Z,99920.46
2017-11-29T11:52:53.037Z,99914.55
2017-11-29T11:55:20.948Z,99917.54
2017-11-29T11:57:48.881Z,99911.08
2017-11-29T12:00:17.190Z,99915.74
2017-11-29T12:02:45.111Z,99908.56
2017-11-29T12:05:13.025Z,99907.30
2017-11-29T12:07:40.921Z,99908.20
2017-11-29T12:10:08.829Z,99915.59
2017-11-29T12:12:37.134Z,99912.05
2017-11-29T12:15:05.032Z,99917.26
2017-11-29T12:17:32.926Z,99918.59
2017-11-29T12:20:00.866Z,99920.08
2017-11-29T12:22:28.782Z,99920.44
2017-11-29T12:24:57.086Z,99911.66
2017-11-29T12:27:25.011Z,99920.11
2017-11-29T12:29:52.909Z,99915.77
2017-11-29T12:32:20.855Z,99915.42
2017-11-29T12:34:49.163Z,99917.28
2017-11-29T12:37:17.057Z,99917.94
2017-11-29T12:39:44.964Z,99918.52
2017-11-29T12:42:12.889Z,99915.86
2017-11-29T12:44:40.785Z,99915.08
2017-11-29T12:47:08.691Z,99911.55
2017-11-29T12:49:48.538Z,99914.80
2017-11-29T12:52:16.430Z,99920.28
2017-11-29T12:54:44.323Z,99915.05
2017-11-29T12:57:12.250Z,99916.91
2017-11-29T12:59:40.159Z,99916.20
2017-11-29T13:02:08.126Z,99919.55
2017-11-29T13:04:36.048Z,99922.93
2017-11-29T13:07:03.940Z,99910.25
2017-11-29T13:09:31.841Z,99906.78
2017-11-29T13:11:59.768Z,99908.11
2017-11-29T13:14:27.674Z,99909.30
2017-11-29T13:16:55.601Z,99907.37
2017-11-29T13:19:23.516Z,99913.83
2017-11-29T13:21:51.416Z,99915.36
2017-11-29T13:24:19.313Z,99912.97
2017-11-29T13:26:47.222Z,99915.20
2017-11-29T13:29:15.133Z,99911.83
2017-11-29T13:31:43.032Z,99918.76
2017-11-29T13:34:11.324Z,99914.59
2017-11-29T13:36:39.223Z,99915.44
2017-11-29T13:39:07.568Z,99911.83
2017-11-29T13:41:35.879Z,99917.31
2017-11-29T13:44:04.200Z,99914.59
2017-11-29T13:46:32.098Z,99912.73
2017-11-29T13:49:00.017Z,99915.81
2017-11-29T13:51:27.939Z,99913.95
2017-11-29T13:53:55.854Z,99916.13
2017-11-29T13:56:23.796Z,99920.57
2017-11-29T13:58:52.096Z,99923.70
2017-11-29T14:01:19.989Z,99924.91
2017-11-29T14:03:47.909Z,99924.61
2017-11-29T14:06:16.215Z,99924.94
2017-11-29T14:08:44.165Z,99923.80
2017-11-29T14:11:12.088Z,99926.18
2017-11-29T14:13:39.991Z,99929.85
2017-11-29T14:16:08.303Z,99932.91
2017-11-29T14:18:36.245Z,99932.52
2017-11-29T14:21:04.144Z,99938.95
2017-11-29T14:23:32.120Z,99942.75
2017-11-29T14:26:00.089Z,99944.34
2017-11-29T14:28:27.985Z,99941.86
2017-11-29T14:30:56.306Z,99950.84
2017-11-29T14:33:24.247Z,99952.72
2017-11-29T14:35:52.565Z,99948.10
2017-11-29T14:38:20.474Z,99947.92
2017-11-29T14:40:48.428Z,99952.78
2017-11-29T14:43:16.332Z,99957.61
2017-11-29T14:45:44.656Z,99952.34
2017-11-29T14:48:12.584Z,99949.56
2017-11-29T14:50:41.013Z,99945.55
2017-11-29T14:53:08.905Z,99954.59
2017-11-29T14:55:36.853Z,99948.80
2017-11-29T14:58:04.780Z,99945.91
2017-11-29T15:00:32.702Z,99942.82
2017-11-29T15:03:00.633Z,99943.54
2017-11-29T15:05:28.537Z,99945.56
2017-11-29T15:07:56.446Z,99937.97
2017-11-29T15:10:24.368Z,99945.47
2017-11-29T15:12:52.295Z,99951.23
2017-11-29T15:15:20.372Z,99943.16
2017-11-29T15:17:48.441Z,99940.17
2017-11-29T15:20:17.214Z,99938.77
2017-11-29T15:22:45.126Z,99938.03
2017-11-29T15:25:13.079Z,99941.57
2017-11-29T15:27:41.012Z,99948.17
2017-11-29T15:30:09.344Z,99944.25
2017-11-29T15:32:37.271Z,99946.80
2017-11-29T15:35:05.174Z,99943.61
2017-11-29T15:37:33.082Z,99944.03
2017-11-29T15:40:01.398Z,99948.86
2017-11-29T15:42:29.296Z,99943.61
2017-11-29T15:44:57.189Z,99948.72
2017-11-29T15:47:25.501Z,99945.79
2017-11-29T15:49:53.399Z,99942.86
2017-11-29T15:52:21.319Z,99947.09
2017-11-29T15:54:49.634Z,99952.31
2017-11-29T15:57:17.532Z,99960.06
2017-11-29T15:59:45.441Z,99962.27
2017-11-29T16:02:13.359Z,99961.71
2017-11-29T16:04:41.286Z,99967.25
2017-11-29T16:07:09.241Z,99966.90
2017-11-29T16:09:37.160Z,99965.98
2017-11-29T16:12:05.057Z,99969.41
2017-11-29T16:14:33.344Z,99966.90
2017-11-29T16:17:01.652Z,99971.63
2017-11-29T16:19:29.729Z,99975.72
2017-11-29T16:21:57.636Z,99968.58
2017-11-29T16:24:25.652Z,99969.88
2017-11-29T16:26:53.817Z,99972.63
2017-11-29T16:29:21.706Z,99972.06
2017-11-29T16:31:49.664Z,99970.07
2017-11-29T16:34:17.564Z,99971.13
2017-11-29T16:36:45.473Z,99969.26
2017-11-29T16:39:13.793Z,99969.59
2017-11-29T16:41:41.693Z,99967.76
2017-11-29T16:44:09.593Z,99965.61
2017-11-29T16:46:37.533Z,99963.75
2017-11-29T16:49:05.436Z,99963.31
2017-11-29T16:51:33.361Z,99967.55
2017-11-29T16:54:01.267Z,99965.21
2017-11-29T16:56:29.175Z,99964.14
2017-11-29T16:58:57.082Z,99967.99
2017-11-29T17:01:25.405Z,99970.62
2017-11-29T17:03:53.308Z,99967.23
2017-11-29T17:06:21.221Z,99963.95
2017-11-29T17:08:49.135Z,99961.34
2017-11-29T17:11:17.039Z,99957.30
2017-11-29T17:13:45.341Z,99958.48
2017-11-29T17:16:13.263Z,99959.16
2017-11-29T17:18:41.169Z,99952.94
2017-11-29T17:21:09.077Z,99955.69
2017-11-29T17:23:37.058Z,99950.25
2017-11-29T17:26:05.030Z,99956.80
2017-11-29T17:28:32.934Z,99950.45
2017-11-29T17:31:01.253Z,99952.55
2017-11-29T17:33:29.198Z,99951.09
2017-11-29T17:35:57.138Z,99947.41
2017-11-29T17:38:25.448Z,99944.09
2017-11-29T17:40:53.355Z,99940.78
2017-11-29T17:43:21.325Z,99946.16
2017-11-29T17:45:49.254Z,99947.27
2017-11-29T17:48:17.144Z,99941.78
2017-11-29T17:50:45.058Z,99949.63
2017-11-29T17:53:13.368Z,99944.91
2017-11-29T17:55:41.276Z,99955.00
2017-11-29T17:58:09.180Z,99947.84
2017-11-29T18:00:37.106Z,99949.35
2017-11-29T18:03:04.999Z,99950.91
2017-11-29T18:05:33.352Z,99947.01
2017-11-29T18:08:01.270Z,99946.79
2017-11-29T18:10:29.164Z,99947.55
2017-11-29T18:12:57.070Z,99949.64
2017-11-29T18:15:24.990Z,99947.30
2017-11-29T18:17:52.919Z,99953.81
2017-11-29T18:20:21.242Z,99954.69
2017-11-29T18:22:49.160Z,99952.14
2017-11-29T18:25:17.065Z,99957.31
2017-11-29T18:27:44.963Z,99956.64
2017-11-29T18:30:12.912Z,99955.71
2017-11-29T18:32:40.833Z,99959.64
2017-11-29T18:35:09.211Z,99961.02
2017-11-29T18:37:37.624Z,99961.84
2017-11-29T18:40:05.536Z,99953.17
2017-11-29T18:42:33.438Z,99960.49
2017-11-29T18:45:01.747Z,99965.64
2017-11-29T18:47:29.665Z,99962.97
2017-11-29T18:49:57.968Z,99968.86
2017-11-29T18:52:25.878Z,99969.44
2017-11-29T18:54:53.829Z,99971.63
2017-11-29T18:57:21.803Z,99974.94
2017-11-29T18:59:49.721Z,99968.09
2017-11-29T19:02:18.025Z,99971.44
2017-11-29T19:04:45.928Z,99969.20
2017-11-29T19:07:13.864Z,99968.55
2017-11-29T19:09:41.766Z,99971.10
2017-11-29T19:12:09.671Z,99972.69
2017-11-29T19:14:37.600Z,99969.55
2017-11-29T19:17:05.504Z,99973.22
2017-11-29T19:19:33.805Z,99966.36
2017-11-29T19:22:02.198Z,99976.45
2017-11-29T19:24:30.173Z,99981.42
2017-11-29T19:26:58.090Z,99981.74
2017-11-29T19:29:26.024Z,99985.44
2017-11-29T19:31:53.928Z,99979.50
2017-11-29T19:34:21.832Z,99980.05
2017-11-29T19:36:49.793Z,99980.08
2017-11-29T19:39:17.709Z,99978.91
2017-11-29T19:41:45.616Z,99981.91
2017-11-29T19:44:13.534Z,99982.61
2017-11-29T19:46:41.431Z,99986.27
2017-11-29T19:49:09.334Z,99981.64
2017-11-29T19:51:37.256Z,99981.50
2017-11-29T19:54:05.169Z,99983.73
2017-11-29T19:56:33.079Z,99989.55
2017-11-29T19:59:01.049Z,99981.06
2017-11-29T20:01:28.976Z,99979.14
2017-11-29T20:03:57.049Z,99971.42
2017-11-29T20:06:24.969Z,99969.02
2017-11-29T20:08:52.879Z,99965.59
2017-11-29T20:11:20.801Z,99967.17
2017-11-29T20:13:48.715Z,99970.19
2017-11-29T20:16:16.626Z,99963.50
2017-11-29T20:18:44.533Z,99964.63
2017-11-29T20:21:12.855Z,99961.31
2017-11-29T20:23:40.753Z,99959.40
2017-11-29T20:26:08.660Z,99952.12
2017-11-29T20:28:36.583Z,99954.72
2017-11-29T20:31:04.499Z,99952.17
2017-11-29T20:33:32.405Z,99949.38
2017-11-29T20:36:00.342Z,99956.33
2017-11-29T20:38:28.232Z,99951.34
2017-11-29T20:40:56.135Z,99950.19
2017-11-29T20:43:24.111Z,99947.08
2017-11-29T20:45:52.737Z,99946.62
2017-11-29T20:48:20.672Z,99951.30
2017-11-29T20:50:49.080Z,99949.35
2017-11-29T20:53:17.029Z,99944.59
2017-11-29T20:55:45.346Z,99947.09
2017-11-29T20:58:13.288Z,99940.60
2017-11-29T21:00:41.189Z,99946.89
2017-11-29T21:03:09.339Z,99944.80
2017-11-29T21:05:37.297Z,99945.95
2017-11-29T21:08:05.200Z,99944.89
2017-11-29T21:10:33.106Z,99951.59
2017-11-29T21:13:01.430Z,99944.38
2017-11-29T21:15:29.329Z,99952.97
2017-11-29T21:17:57.237Z,99952.07
2017-11-29T21:20:25.165Z,99947.17
2017-11-29T21:22:53.071Z,99948.83
2017-11-29T21:25:21.022Z,99946.20
2017-11-29T21:27:49.349Z,99948.27
2017-11-29T21:30:17.254Z,99954.97
2017-11-29T21:32:45.202Z,99954.48
2017-11-29T21:35:13.161Z,99956.84
2017-11-29T21:37:41.057Z,99949.49
2017-11-29T21:40:08.958Z,99947.21
2017-11-29T21:42:36.915Z,99951.11
2017-11-29T21:45:05.226Z,99952.34
2017-11-29T21:47:33.145Z,99951.68
2017-11-29T21:50:01.093Z,99955.35
2017-11-29T21:52:28.997Z,99962.44
2017-11-29T21:54:56.907Z,99960.71
2017-11-29T21:57:24.835Z,99961.61
2017-11-29T21:59:52.742Z,99955.35
2017-11-29T22:02:20.644Z,99968.53
2017-11-29T22:04:48.573Z,99959.23
2017-11-29T22:07:16.474Z,99958.73
2017-11-29T22:09:44.388Z,99952.86
2017-11-29T22:12:12.688Z,99950.08
2017-11-29T22:14:40.613Z,99956.81
2017-11-29T22:17:08.907Z,99948.80
2017-11-29T22:19:36.841Z,99948.73
2017-11-29T22:22:04.730Z,99943.50
2017-11-29T22:24:33.047Z,99949.45
2017-11-29T22:27:00.974Z,99943.58
2017-11-29T22:29:28.915Z,99944.43
2017-11-29T22:31:56.838Z,99943.48
2017-11-29T22:34:24.763Z,99937.22
2017-11-29T22:36:52.672Z,99935.47
2017-11-29T22:39:20.584Z,99936.78
2017-11-29T22:41:48.524Z,99932.13
2017-11-29T22:44:16.506Z,99929.19
2017-11-29T22:46:44.508Z,99931.27
2017-11-29T22:49:12.433Z,99930.81
2017-11-29T22:51:40.333Z,99923.24
2017-11-29T22:54:08.229Z,99918.93
2017-11-29T22:56:36.580Z,99919.65
2017-11-29T22:59:04.519Z,99921.30
2017-11-29T23:01:32.466Z,99915.55
2017-11-29T23:04:00.380Z,99915.96
2017-11-29T23:06:28.277Z,99915.95
2017-11-29T23:08:56.582Z,99907.84
2017-11-29T23:11:24.532Z,99909.05
2017-11-29T23:13:52.420Z,99904.38
2017-11-29T23:16:20.316Z,99901.75
2017-11-29T23:18:48.238Z,99897.75
2017-11-29T23:21:16.153Z,99895.06
2017-11-29T23:23:44.078Z,99897.25
2017-11-29T23:26:12.006Z,99894.07
2017-11-29T23:28:39.919Z,99895.55
2017-11-29T23:31:07.813Z,99894.78
2017-11-29T23:33:35.730Z,99889.15
2017-11-29T23:36:04.024Z,99884.32
2017-11-29T23:38:31.920Z,99890.84
2017-11-29T23:40:59.853Z,99885.45
2017-11-29T23:43:28.161Z,99882.44
2017-11-29T23:45:56.068Z,99874.00
2017-11-29T23:48:23.996Z,99870.83
2017-11-29T23:50:51.889Z,99873.52
2017-11-29T23:53:19.796Z,99865.45
2017-11-29T23:55:48.117Z,99867.97
2017-11-29T23:58:16.042Z,99862.31
